Pagrindinis puslapis
METAR-TAF:

METAR-TAF

Oro uostai :

Dübendorf, Šveicarija

platuma: 47-23-55N, ilguma: 8-38-53E, Aukštis: 448 m

Dabartinis oras

Ataskaita buvo paskelbta 32 minutes, ne 00:20 UTC
Vėjas 2 kt iš Rytų/Pietryčių
Temperatūra 5°C
Drėgmė 81%
Slėgis 1016 hPa
Matomumas 10 km arba daugiau
Su prošvaistėmis ne aukštis 8300 ft

METAR: LSMD 290020Z AUTO 11002KT 9999NDV BKN083 05/02 Q1016 RMK

Laikas: 01:52 (00:52 UTC)


TAF: trūkstamas

Orai ataskaitas ir orų prognozės (METAR, TAF).

turimą stotys yra geltonos ir raudonos taškus žemėlapyje.

Perkelti pele per norėdami pamatyti stoties vardą.

Tada spustelėkite, norėdami matyti oro stebėjimo ir prognozės.

Norėdami pakeisti žemėlapį: spustelėkite ant žalios mygtukų su juodo kryžiaus žemyn,; žalią mygtuką su brūkšneliu, jei norite nutolinti; arba žalių rodyklių gretimoms žemėlapius.


METAR-TAF: